Station info - map view · info · telemetry · weather · raw · status · beacons · messages · bulletins · browse · moving · my account
Callsign, ship name or locator: Clear       
It is possible to search using wildcards (*?) after a prefix. Example: OH*
APRS station W6DHQ-1 - show graphs
Map loading...
Comment: 146.520MHz Greg
Mic-E message: En route
Location: 33°09.35' N 117°18.65' W - locator DM13ID27QJ - show map - static map
2.3 miles East bearing 94° from Carlsbad, San Diego County, California, United States [?]
5.0 miles Southwest bearing 232° from Vista, San Diego County, California, United States
48.5 miles North bearing 339° from Tijuana, Baja California, Mexico
81.9 miles Southeast bearing 139° from Los Angeles, Los Angeles County, California, United States
Last position: 2021-01-01 19:13:22 CST (22d 7h25m ago)
2021-01-01 17:13:22 PST local time at Carlsbad, United States [?]
Altitude: 75 ft
Position ambiguous: Precision reduced at transmitter by 1 digits, position resolution approximately 202.3 yards.
Course: 335°
Speed: 11 MPH
Device: Yaesu: FTM-400DR (rig)
Last path: W6DHQ-1>SS0YSZ via N6ROR-10*,WIDE1*,qAR,N6SUN-10 (good)
Positions stored: 754
Other SSIDs: W6DHQ W6DHQ-9
Stations near current position of W6DHQ-1 - show more
callsign distance last heard - CST      callsign distance last heard - CST
W6DHQ0.3 miles 292°2021-01-02 17:50:53 KM6ARG-70.8 miles 282°2021-01-17 20:55:53
W4AFK B1.1 miles 161°2021-01-24 02:28:57 W4AFK-B1.1 miles 161°2021-01-24 02:29:07
AM6QJ-91.2 miles 47°2021-01-08 16:27:23 W4AFK1.3 miles 160°2021-01-24 02:28:27
fw66261.4 miles 145°2021-01-24 02:36:05 N6MY C1.4 miles 132°2021-01-22 09:12:46
N6MY-C1.4 miles 132°2021-01-22 09:12:56 N6MY E1.4 miles 132°2021-01-22 09:27:28
N6MY-E1.4 miles 132°2021-01-22 09:27:38 KM6PJC C1.4 miles 132°2021-01-22 14:49:06
KM6PJC-C1.4 miles 132°2021-01-22 14:49:16 KG6VVN-31.5 miles 131°2020-12-28 15:21:26
KN6JSX-91.5 miles 265°2021-01-21 08:21:54 W6BJB-71.9 miles 359°2021-01-11 20:25:19
W6BJB-102.0 miles 359°2021-01-24 01:46:09 KJ6ACO B2.1 miles 50°2021-01-23 22:55:04
KJ6ACO-B2.1 miles 50°2021-01-23 22:55:14 KI7OVF-42.7 miles 74°2021-01-11 09:52:42
Stations which heard W6DHQ-1 directly on radio –
callsign pkts first heard - CST last heard longest (tx => rx) longest at - CST
K6TJS 16 2021-01-01 13:37:45 2021-01-01 14:10:36 CM97JB > CM97OB 22.8 miles 91° 2021-01-01 13:37:45
WR6ABD 8 2021-01-01 12:47:35 2021-01-01 13:18:12 CM96FX > CM97BC 20.4 miles 293° 2021-01-01 13:18:12
K6IXA-3 44 2021-01-01 13:43:08 2021-01-01 16:40:57 CM97KC > DM06NR 127.9 miles 101° 2021-01-01 13:43:08
K6JE-3 18 2021-01-01 13:04:36 2021-01-01 13:35:47 CM97IB > CM96FS 24.5 miles 214° 2021-01-01 13:35:47
W6CX-3 10 2021-01-01 12:23:46 2021-01-01 12:39:35 CM87XG > CM97BV 42.5 miles 9° 2021-01-01 12:39:35
W6SCE-10 4 2021-01-01 17:05:36 2021-01-01 18:30:42 DM13DO > DM04QH 70.9 miles 314° 2021-01-01 18:30:42
N6EX-1 1 2021-01-01 18:05:13 2021-01-01 18:05:13 DM03WT > DM04XE 26.9 miles 15° 2021-01-01 18:05:13
N6EX-4 2 2021-01-01 18:18:13 2021-01-01 18:23:18 DM13AQ > DM13ET 19.7 miles 70° 2021-01-01 18:18:13
W6YX-5 3 2021-01-01 12:24:27 2021-01-01 12:33:59 CM87WI > CM87WJ 5.5 miles 316° 2021-01-01 12:33:59
WA6ZSN 1 2021-01-01 17:14:02 2021-01-01 17:14:02 DM04QL > DM04LH 25.4 miles 247° 2021-01-01 17:14:02
KELLER 3 2021-01-01 17:36:24 2021-01-01 18:06:36 DM04SD > DM14LE 81.2 miles 87° 2021-01-01 17:36:24
KJ6HUP 2 2021-01-01 15:02:15 2021-01-01 15:06:37 CM96WC > DM06ES 53.5 miles 30° 2021-01-01 15:06:37
WA6TOW-2 5 2021-01-01 12:15:08 2021-01-01 12:52:34 CM97CF > CM87SN 45.0 miles 300° 2021-01-01 12:52:34
KE6AFE-2 1 2021-01-01 13:16:28 2021-01-01 13:16:28 CM97FA > CM86XX 27.6 miles 266° 2021-01-01 13:16:28
K6RPT 1 2021-01-01 12:52:33 2021-01-01 12:52:33 CM97CF > CM97BG 6.7 miles 278° 2021-01-01 12:52:33
W6IA 1 2021-01-01 12:49:34 2021-01-01 12:49:34 CM97CF > CM97BG 5.1 miles 293° 2021-01-01 12:49:34
KH6L-3 2 2021-01-01 12:21:07 2021-01-01 12:56:33 CM87UL > CM97BE 31.9 miles 127° 2021-01-01 12:21:07
KF6NMZ-4 7 2021-01-01 17:15:20 2021-01-01 17:35:49 DM04QK > DM04SG 16.6 miles 146° 2021-01-01 17:15:20
W6SRR-3 2 2021-01-01 12:32:26 2021-01-01 12:36:41 CM87XH > CM97AO 21.6 miles 19° 2021-01-01 12:36:41
KB9ENS-10 2 2021-01-01 17:53:33 2021-01-01 17:54:04 DM03TV > DM03TV 2.3 miles 112° 2021-01-01 17:53:33
kd6lpa 3 2021-01-01 17:51:31 2021-01-01 18:03:13 DM03TW > DM03UT 9.4 miles 159° 2021-01-01 17:51:31
WA6IAJ-1 5 2021-01-01 18:07:34 2021-01-01 18:18:34 DM03WT > DM03XR 6.3 miles 135° 2021-01-01 18:07:34
N6ROR-10 4 2021-01-01 19:00:56 2021-01-01 19:13:22 DM13HF > DM13QA 48.9 miles 107° 2021-01-01 19:00:56
N6LXX-10 8 2021-01-01 16:51:38 2021-01-01 18:18:26 DM13AQ > DM04UJ 52.5 miles 335° 2021-01-01 18:18:26
N6LXX-4 9 2021-01-01 16:47:20 2021-01-01 18:18:05 DM04NT > DM14DI 75.5 miles 116° 2021-01-01 16:47:20
W6BSD-5 1 2021-01-01 12:26:59 2021-01-01 12:26:59 CM87VJ > CM87VL 3.6 miles 326° 2021-01-01 12:26:59
W6PW-10 2 2021-01-01 12:28:58 2021-01-01 12:36:10 CM87XH > CM87SS 36.5 miles 323° 2021-01-01 12:36:10
KD4EED-10 1 2021-01-01 17:40:56 2021-01-01 17:40:56 DM04SB > DM04SB 3.5 miles 140° 2021-01-01 17:40:56
N6VYT-7 2 2021-01-01 14:40:36 2021-01-01 14:44:36 CM96UH > DM05RU 101.3 miles 108° 2021-01-01 14:40:36
WB6TMS-5 1 2021-01-01 12:20:06 2021-01-01 12:20:06 CM87UL > CM88RI 61.2 miles 346° 2021-01-01 12:20:06
N6ACK-10 6 2021-01-01 12:19:34 2021-01-01 12:37:34 CM87UL > CM97AH 22.2 miles 121° 2021-01-01 12:19:34
SHAVER 8 2021-01-01 14:16:36 2021-01-01 16:42:19 DM04MV > DM07IC 154.5 miles 352° 2021-01-01 16:42:19
WB6JHI-1 1 2021-01-01 12:47:34 2021-01-01 12:47:34 CM97BG > CM97AF 6.2 miles 261° 2021-01-01 12:47:34
K0RCA-2 3 2021-01-01 12:20:36 2021-01-01 12:30:14 CM87UL > CM87XO 18.0 miles 65° 2021-01-01 12:20:36
KM6UTN-2 2 2021-01-01 16:48:40 2021-01-01 16:49:58 DM04NT > DM04LU 10.2 miles 284° 2021-01-01 16:49:58
KB6VN-1 7 2021-01-01 12:39:34 2021-01-01 12:58:33 CM97DE > CM97AG 18.0 miles 290° 2021-01-01 12:58:33
W3SN-10 7 2021-01-01 18:56:24 2021-01-01 19:12:03 DM13HD > DM13IJ 18.3 miles 13° 2021-01-01 19:07:47
AJ7C-12 3 2021-01-01 17:38:56 2021-01-01 17:44:56 DM04SC > DM04TA 8.1 miles 152° 2021-01-01 17:38:56

Only position packets which were originated by the station are shown here. The range statistics show some extra long hops, because some digipeaters do not correctly add themselves to the digipeater path. Please check the raw packets.
About this site
This page shows real-time information collected from the Automatic Position Reporting System Internet network (APRS-IS). APRS is used by amateur (ham) radio operators to transmit real-time position information, weather data, telemetry and messages over the radio. A vehicle equipped with a GPS receiver, a VHF transmitter or HF transceiver and a small computer device called a tracker transmits it's location, speed and course in a small data packet, which is then received by a nearby iGate receiving site which forwards the packet on the Internet. Systems connected to the Internet can send information on the APRS-IS without a radio transmitter, or collect and display information transmitted anywhere in the world.
User guide · FAQ · Blog · Discussion group · Linking to aprs.fi · AIS sites · Service status · Database statistics · Advertising on aprs.fi · Technical details · API · Change log · Planned changes · Credits and thanks · Terms Of Service · iPhone/iPad APRS